createdAt,value
2023-03-14T00:00:47.864Z,0
2023-03-14T00:01:47.950Z,0
2023-03-14T00:02:48.298Z,0
2023-03-14T00:03:48.658Z,0
2023-03-14T00:04:49.760Z,0
2023-03-14T00:05:50.063Z,0
2023-03-14T00:06:50.029Z,0
2023-03-14T00:07:51.230Z,0
2023-03-14T00:08:51.848Z,0
2023-03-14T00:09:52.734Z,0
2023-03-14T00:10:53.473Z,0
2023-03-14T00:11:53.401Z,0
2023-03-14T00:12:54.749Z,0
2023-03-14T00:13:55.413Z,0
2023-03-14T00:14:55.897Z,0
2023-03-14T00:15:56.088Z,0
2023-03-14T00:16:56.485Z,0
2023-03-14T00:17:56.422Z,0
2023-03-14T00:18:57.653Z,0
2023-03-14T00:19:58.204Z,0
2023-03-14T00:20:58.466Z,0
2023-03-14T00:21:59.109Z,0
2023-03-14T00:22:59.609Z,0
2023-03-14T00:23:59.827Z,0
2023-03-14T00:24:59.832Z,0
2023-03-14T00:26:01.070Z,0
2023-03-14T00:27:00.992Z,0
2023-03-14T00:28:00.940Z,0
2023-03-14T00:29:02.437Z,0
2023-03-14T00:30:02.665Z,0
2023-03-14T00:31:03.098Z,0
2023-03-14T00:32:02.953Z,0
2023-03-14T00:33:04.236Z,0
2023-03-14T00:34:04.732Z,0
2023-03-14T00:35:04.856Z,0
2023-03-14T00:36:05.410Z,0
2023-03-14T00:37:05.789Z,0
2023-03-14T00:38:06.779Z,0
2023-03-14T00:39:06.581Z,0
2023-03-14T00:40:07.523Z,0
2023-03-14T00:41:08.483Z,0
2023-03-14T00:42:09.392Z,0
2023-03-14T00:43:09.600Z,0
2023-03-14T00:44:10.108Z,0
2023-03-14T00:45:10.832Z,0
2023-03-14T00:46:11.436Z,0
2023-03-14T00:47:12.454Z,0
2023-03-14T00:48:12.134Z,0
2023-03-14T00:49:12.789Z,0
2023-03-14T00:50:14.466Z,0
2023-03-14T00:51:15.030Z,0
2023-03-14T00:52:14.987Z,0
2023-03-14T00:53:15.956Z,0
2023-03-14T00:54:17.178Z,0
2023-03-14T00:55:18.647Z,0
2023-03-14T00:56:18.589Z,0
2023-03-14T00:57:18.821Z,0
2023-03-14T00:58:19.046Z,0
2023-03-14T00:59:19.567Z,0
2023-03-14T01:00:19.478Z,0
2023-03-14T01:01:20.169Z,0
2023-03-14T01:02:21.602Z,0
2023-03-14T01:03:22.618Z,0
2023-03-14T01:04:22.574Z,0
2023-03-14T01:05:23.961Z,0
2023-03-14T01:06:23.953Z,0
2023-03-14T01:07:24.790Z,0
2023-03-14T01:08:26.012Z,0
2023-03-14T01:09:26.240Z,0
2023-03-14T01:10:26.445Z,0
2023-03-14T01:11:26.847Z,0
2023-03-14T01:12:27.852Z,0
2023-03-14T01:13:28.771Z,0
2023-03-14T01:14:29.302Z,0
2023-03-14T01:15:29.550Z,0
2023-03-14T01:16:29.902Z,0
2023-03-14T01:17:30.541Z,0
2023-03-14T01:18:30.771Z,0
2023-03-14T01:19:30.571Z,0
2023-03-14T01:20:31.620Z,0
2023-03-14T01:21:32.943Z,0
2023-03-14T01:22:32.898Z,0
2023-03-14T01:23:33.834Z,0
2023-03-14T01:24:34.748Z,0
2023-03-14T01:25:35.475Z,0
2023-03-14T01:26:36.443Z,0
2023-03-14T01:27:36.686Z,0
2023-03-14T01:28:37.322Z,0
2023-03-14T01:29:38.824Z,0
2023-03-14T01:30:39.770Z,0
2023-03-14T01:31:40.003Z,0
2023-03-14T01:32:40.211Z,0
2023-03-14T01:33:40.313Z,0
2023-03-14T01:34:40.512Z,0
2023-03-14T01:35:42.048Z,0
2023-03-14T01:36:42.861Z,0
2023-03-14T01:37:42.120Z,0
2023-03-14T01:38:41.837Z,0
2023-03-14T01:39:42.885Z,0
2023-03-14T01:40:43.517Z,0
2023-03-14T01:41:44.036Z,0
2023-03-14T01:42:44.249Z,0
2023-03-14T01:43:44.732Z,0
2023-03-14T01:44:44.646Z,0
2023-03-14T01:45:45.831Z,0
2023-03-14T01:46:47.019Z,0
2023-03-14T01:47:47.219Z,0
2023-03-14T01:48:47.183Z,0
2023-03-14T01:49:48.106Z,0
2023-03-14T01:50:48.956Z,0
2023-03-14T01:51:49.599Z,0
2023-03-14T01:52:50.122Z,0
2023-03-14T01:53:50.323Z,0
2023-03-14T01:54:50.257Z,0
2023-03-14T01:55:51.594Z,0
2023-03-14T01:56:52.516Z,0
2023-03-14T01:57:53.472Z,0
2023-03-14T01:58:53.673Z,0
2023-03-14T01:59:53.912Z,0
2023-03-14T02:00:54.079Z,0
2023-03-14T02:01:55.063Z,0
2023-03-14T02:02:55.262Z,0
2023-03-14T02:03:55.826Z,0
2023-03-14T02:04:55.756Z,0
2023-03-14T02:05:55.828Z,0
2023-03-14T02:06:57.121Z,0
2023-03-14T02:07:57.138Z,0
2023-03-14T02:08:58.089Z,0
2023-03-14T02:09:58.328Z,0
2023-03-14T02:10:58.281Z,0
2023-03-14T02:11:59.513Z,0
2023-03-14T02:12:59.708Z,0
2023-03-14T02:14:00.939Z,0
2023-03-14T02:15:01.145Z,0
2023-03-14T02:16:01.592Z,0
2023-03-14T02:17:02.160Z,0
2023-03-14T02:18:02.115Z,0
2023-03-14T02:19:02.607Z,0
2023-03-14T02:20:02.280Z,0
2023-03-14T02:21:03.508Z,0
2023-03-14T02:22:04.100Z,0
2023-03-14T02:23:04.066Z,0
2023-03-14T02:24:05.018Z,0
2023-03-14T02:25:06.213Z,0
2023-03-14T02:26:06.125Z,0
2023-03-14T02:27:06.763Z,0
2023-03-14T02:28:07.400Z,0
2023-03-14T02:29:07.881Z,0
2023-03-14T02:30:07.812Z,0
2023-03-14T02:31:08.014Z,0
2023-03-14T02:32:08.924Z,0
2023-03-14T02:33:09.617Z,0
2023-03-14T02:34:09.245Z,0
2023-03-14T02:35:10.449Z,0
2023-03-14T02:36:11.481Z,0
2023-03-14T02:37:11.783Z,0
2023-03-14T02:38:12.287Z,0
2023-03-14T02:39:12.925Z,0
2023-03-14T02:40:12.865Z,0
2023-03-14T02:41:13.511Z,0
2023-03-14T02:42:15.000Z,0
2023-03-14T02:43:15.207Z,0
2023-03-14T02:44:14.889Z,0
2023-03-14T02:45:16.179Z,0
2023-03-14T02:46:16.524Z,0
2023-03-14T02:47:16.871Z,0
2023-03-14T02:48:16.788Z,0
2023-03-14T02:49:17.418Z,0
2023-03-14T02:50:19.352Z,0
2023-03-14T02:51:19.645Z,0
2023-03-14T02:52:19.631Z,0
2023-03-14T02:53:20.172Z,0
2023-03-14T02:54:20.083Z,0
2023-03-14T02:55:20.297Z,0
2023-03-14T02:56:21.624Z,0
2023-03-14T02:57:21.266Z,0
2023-03-14T02:58:22.239Z,0
2023-03-14T02:59:22.512Z,0
2023-03-14T03:00:23.165Z,0
2023-03-14T03:01:24.329Z,0
2023-03-14T03:02:24.319Z,0
2023-03-14T03:03:25.310Z,0
2023-03-14T03:04:25.333Z,0
2023-03-14T03:05:26.581Z,0
2023-03-14T03:06:27.367Z,0
2023-03-14T03:07:27.990Z,0
2023-03-14T03:08:28.260Z,0
2023-03-14T03:09:29.472Z,0
2023-03-14T03:10:30.390Z,0
2023-03-14T03:11:30.607Z,0
2023-03-14T03:12:30.825Z,0
2023-03-14T03:13:30.747Z,0
2023-03-14T03:14:32.252Z,0
2023-03-14T03:15:32.644Z,0
2023-03-14T03:16:33.684Z,0
2023-03-14T03:17:33.744Z,0
2023-03-14T03:18:34.688Z,0
2023-03-14T03:19:36.197Z,0
2023-03-14T03:20:36.116Z,0
2023-03-14T03:21:37.929Z,0
2023-03-14T03:22:38.291Z,0
2023-03-14T03:23:38.298Z,0
2023-03-14T03:24:39.257Z,0
2023-03-14T03:25:40.198Z,0
2023-03-14T03:26:40.523Z,0
2023-03-14T03:27:40.732Z,0
2023-03-14T03:28:41.222Z,0
2023-03-14T03:29:41.423Z,0
2023-03-14T03:30:42.193Z,0
2023-03-14T03:31:42.858Z,0
2023-03-14T03:32:43.941Z,0
2023-03-14T03:33:43.780Z,0
2023-03-14T03:34:44.000Z,0
2023-03-14T03:35:44.313Z,0
2023-03-14T03:36:44.751Z,0
2023-03-14T03:37:45.299Z,0
2023-03-14T03:38:45.800Z,0
2023-03-14T03:39:45.865Z,0
2023-03-14T03:40:45.833Z,0
2023-03-14T03:41:46.753Z,0
2023-03-14T03:42:47.409Z,0
2023-03-14T03:43:48.614Z,0
2023-03-14T03:44:48.974Z,0
2023-03-14T03:45:50.214Z,0
2023-03-14T03:46:50.520Z,0
2023-03-14T03:47:50.488Z,0
2023-03-14T03:48:51.404Z,0
2023-03-14T03:49:51.924Z,0
2023-03-14T03:50:52.132Z,0
2023-03-14T03:51:53.400Z,0
2023-03-14T03:52:53.084Z,0
2023-03-14T03:53:54.055Z,0
2023-03-14T03:54:54.985Z,0
2023-03-14T03:55:56.207Z,0
2023-03-14T03:56:56.961Z,0
2023-03-14T03:57:57.888Z,0
2023-03-14T03:58:58.481Z,0
2023-03-14T03:59:58.422Z,0
2023-03-14T04:00:58.659Z,0
2023-03-14T04:01:59.793Z,0
2023-03-14T04:03:00.854Z,0
2023-03-14T04:04:02.155Z,0
2023-03-14T04:05:02.066Z,0
2023-03-14T04:06:02.201Z,0
2023-03-14T04:07:03.122Z,0
2023-03-14T04:08:03.394Z,0
2023-03-14T04:09:03.681Z,0
2023-03-14T04:10:03.927Z,0
2023-03-14T04:11:04.563Z,0
2023-03-14T04:12:05.778Z,0
2023-03-14T04:13:05.710Z,0
2023-03-14T04:14:06.645Z,0
2023-03-14T04:15:06.858Z,0
2023-03-14T04:16:07.402Z,0
2023-03-14T04:17:07.244Z,0
2023-03-14T04:18:07.878Z,0
2023-03-14T04:19:09.102Z,0
2023-03-14T04:20:09.034Z,0
2023-03-14T04:21:10.248Z,0
2023-03-14T04:22:10.514Z,0
2023-03-14T04:23:10.757Z,0
2023-03-14T04:24:10.989Z,0
2023-03-14T04:25:11.156Z,0
2023-03-14T04:26:11.872Z,0
2023-03-14T04:27:13.180Z,0
2023-03-14T04:28:13.704Z,0
2023-03-14T04:29:14.206Z,0
2023-03-14T04:30:14.408Z,0
2023-03-14T04:31:14.778Z,0
2023-03-14T04:32:15.060Z,0
2023-03-14T04:33:16.377Z,0
2023-03-14T04:34:16.582Z,0
2023-03-14T04:35:16.957Z,0
2023-03-14T04:36:18.352Z,0
2023-03-14T04:37:19.587Z,0
2023-03-14T04:38:19.981Z,0
2023-03-14T04:39:20.221Z,0
2023-03-14T04:40:24.227Z,0
2023-03-14T04:41:21.169Z,0
2023-03-14T04:42:21.812Z,0
2023-03-14T04:43:23.059Z,0
2023-03-14T04:44:23.767Z,0
2023-03-14T04:45:24.696Z,0
2023-03-14T04:46:26.007Z,0
2023-03-14T04:47:25.951Z,0
2023-03-14T04:48:26.550Z,0
2023-03-14T04:49:26.824Z,0
2023-03-14T04:50:27.033Z,0
2023-03-14T04:51:27.965Z,0
2023-03-14T04:52:28.632Z,0
2023-03-14T04:53:31.828Z,0
2023-03-14T04:54:30.053Z,0
2023-03-14T04:55:30.795Z,0
2023-03-14T04:56:32.296Z,0
2023-03-14T04:57:32.762Z,0
2023-03-14T04:58:33.732Z,0
2023-03-14T04:59:34.668Z,0
2023-03-14T05:00:35.771Z,0
2023-03-14T05:01:36.071Z,0
2023-03-14T05:02:36.553Z,0
2023-03-14T05:03:37.041Z,0
2023-03-14T05:04:37.275Z,0
2023-03-14T05:05:38.200Z,0
2023-03-14T05:06:39.125Z,0
2023-03-14T05:07:40.228Z,0
2023-03-14T05:08:41.247Z,0
2023-03-14T05:09:41.173Z,0
2023-03-14T05:10:42.379Z,0
2023-03-14T05:11:42.328Z,0
2023-03-14T05:12:42.543Z,0
2023-03-14T05:13:45.948Z,0
2023-03-14T05:14:44.450Z,0
2023-03-14T05:15:45.058Z,0
2023-03-14T05:16:45.648Z,0
2023-03-14T05:17:46.057Z,0
2023-03-14T05:18:46.733Z,0
2023-03-14T05:19:48.004Z,0
2023-03-14T05:20:48.215Z,4
2023-03-14T05:21:48.415Z,4
2023-03-14T05:22:49.678Z,4
2023-03-14T05:23:49.984Z,4
2023-03-14T05:24:50.036Z,4
2023-03-14T05:25:51.558Z,0
2023-03-14T05:26:51.793Z,0
2023-03-14T05:27:52.803Z,4
2023-03-14T05:28:53.289Z,4
2023-03-14T05:29:53.212Z,4
2023-03-14T05:30:54.417Z,4
2023-03-14T05:31:54.870Z,4
2023-03-14T05:32:55.294Z,4
2023-03-14T05:33:55.421Z,4
2023-03-14T05:34:55.643Z,8
2023-03-14T05:35:56.483Z,4
2023-03-14T05:36:57.073Z,4
2023-03-14T05:37:57.920Z,8
2023-03-14T05:38:58.585Z,8
2023-03-14T05:39:58.976Z,8
2023-03-14T05:40:59.183Z,8
2023-03-14T05:41:59.829Z,8
2023-03-14T05:43:01.042Z,8
2023-03-14T05:44:00.968Z,12
2023-03-14T05:45:02.452Z,8
2023-03-14T05:46:03.015Z,12
2023-03-14T05:47:03.208Z,12
2023-03-14T05:48:03.967Z,16
2023-03-14T05:49:03.903Z,16
2023-03-14T05:50:04.934Z,12
2023-03-14T05:51:05.331Z,16
2023-03-14T05:52:06.540Z,16
2023-03-14T05:53:07.581Z,16
2023-03-14T05:54:08.201Z,20
2023-03-14T05:55:08.821Z,20
2023-03-14T05:56:09.485Z,20
2023-03-14T05:57:09.391Z,20
2023-03-14T05:58:09.745Z,20
2023-03-14T05:59:09.724Z,24
2023-03-14T06:00:10.930Z,28
2023-03-14T06:01:11.151Z,28
2023-03-14T06:02:12.396Z,36
2023-03-14T06:03:13.606Z,40
2023-03-14T06:04:13.920Z,36
2023-03-14T06:05:15.129Z,40
2023-03-14T06:06:15.346Z,36
2023-03-14T06:07:16.286Z,36
2023-03-14T06:08:17.980Z,40
2023-03-14T06:09:17.549Z,36
2023-03-14T06:10:18.070Z,40
2023-03-14T06:11:18.140Z,44
2023-03-14T06:12:19.388Z,52
2023-03-14T06:13:19.310Z,64
2023-03-14T06:14:20.544Z,76
2023-03-14T06:15:20.774Z,88
2023-03-14T06:16:20.913Z,104
2023-03-14T06:17:21.672Z,112
2023-03-14T06:18:22.765Z,120
2023-03-14T06:19:23.043Z,124
2023-03-14T06:20:23.705Z,132
2023-03-14T06:21:25.036Z,144
2023-03-14T06:22:25.537Z,164
2023-03-14T06:23:26.410Z,188
2023-03-14T06:24:26.961Z,212
2023-03-14T06:25:26.908Z,232
2023-03-14T06:26:28.121Z,236
2023-03-14T06:27:28.317Z,224
2023-03-14T06:28:31.889Z,200
2023-03-14T06:29:29.588Z,180
2023-03-14T06:30:30.853Z,168
2023-03-14T06:31:31.501Z,160
2023-03-14T06:32:31.594Z,160
2023-03-14T06:33:31.547Z,164
2023-03-14T06:34:33.221Z,160
2023-03-14T06:35:32.656Z,164
2023-03-14T06:36:33.961Z,168
2023-03-14T06:37:34.882Z,176
2023-03-14T06:38:36.286Z,184
2023-03-14T06:39:36.726Z,176
2023-03-14T06:40:36.670Z,168
2023-03-14T06:41:38.179Z,164
2023-03-14T06:42:38.811Z,164
2023-03-14T06:43:40.036Z,164
2023-03-14T06:44:39.659Z,156
2023-03-14T06:45:40.399Z,148
2023-03-14T06:46:41.166Z,144
2023-03-14T06:47:42.372Z,140
2023-03-14T06:48:42.656Z,140
2023-03-14T06:49:42.850Z,140
2023-03-14T06:50:43.043Z,140
2023-03-14T06:51:43.976Z,144
2023-03-14T06:52:44.407Z,144
2023-03-14T06:53:45.128Z,144
2023-03-14T06:54:45.431Z,144
2023-03-14T06:55:45.660Z,144
2023-03-14T06:56:46.581Z,144
2023-03-14T06:57:47.804Z,136
2023-03-14T06:58:50.096Z,132
2023-03-14T06:59:48.491Z,132
2023-03-14T07:00:49.121Z,132
2023-03-14T07:01:50.590Z,144
2023-03-14T07:02:54.207Z,156
2023-03-14T07:03:50.857Z,168
2023-03-14T07:04:52.428Z,184
2023-03-14T07:05:52.728Z,192
2023-03-14T07:06:52.683Z,204
2023-03-14T07:07:53.164Z,220
2023-03-14T07:08:54.252Z,240
2023-03-14T07:09:55.236Z,252
2023-03-14T07:10:54.647Z,268
2023-03-14T07:11:55.879Z,284
2023-03-14T07:12:56.113Z,296
2023-03-14T07:13:55.763Z,300
2023-03-14T07:14:59.010Z,308
2023-03-14T07:15:58.905Z,316
2023-03-14T07:16:58.991Z,320
2023-03-14T07:17:59.223Z,328
2023-03-14T07:18:59.589Z,328
2023-03-14T07:19:59.514Z,328
2023-03-14T07:21:02.873Z,324
2023-03-14T07:22:00.798Z,340
2023-03-14T07:23:02.030Z,384
2023-03-14T07:24:02.773Z,404
2023-03-14T07:25:03.185Z,412
2023-03-14T07:26:03.437Z,408
2023-03-14T07:27:03.701Z,404
2023-03-14T07:28:04.724Z,396
2023-03-14T07:29:04.701Z,400
2023-03-14T07:30:06.292Z,400
2023-03-14T07:31:06.228Z,404
2023-03-14T07:32:06.782Z,404
2023-03-14T07:33:08.385Z,416
2023-03-14T07:34:07.810Z,436
2023-03-14T07:35:09.017Z,460
2023-03-14T07:36:08.854Z,476
2023-03-14T07:37:09.559Z,488
2023-03-14T07:38:11.044Z,484
2023-03-14T07:39:11.741Z,472
2023-03-14T07:40:12.283Z,452
2023-03-14T07:41:12.224Z,436
2023-03-14T07:42:12.883Z,428
2023-03-14T07:43:14.396Z,424
2023-03-14T07:44:14.338Z,420
2023-03-14T07:45:14.864Z,424
2023-03-14T07:46:15.670Z,436
2023-03-14T07:47:18.098Z,436
2023-03-14T07:48:16.028Z,432
2023-03-14T07:49:16.772Z,432
2023-03-14T07:50:17.997Z,432
2023-03-14T07:51:17.944Z,432
2023-03-14T07:52:19.197Z,436
2023-03-14T07:53:19.456Z,440
2023-03-14T07:54:21.250Z,448
2023-03-14T07:55:21.587Z,448
2023-03-14T07:56:21.542Z,444
2023-03-14T07:57:22.190Z,436
2023-03-14T07:58:22.139Z,428
2023-03-14T07:59:22.251Z,424
2023-03-14T08:00:26.350Z,420
2023-03-14T08:01:23.878Z,428
2023-03-14T08:02:23.994Z,440
2023-03-14T08:03:24.720Z,460
2023-03-14T08:04:25.188Z,476
2023-03-14T08:05:25.405Z,492
2023-03-14T08:06:26.625Z,492
2023-03-14T08:07:26.832Z,480
2023-03-14T08:08:27.763Z,472
2023-03-14T08:09:28.449Z,452
2023-03-14T08:10:28.767Z,436
2023-03-14T08:11:29.068Z,424
2023-03-14T08:12:29.777Z,416
2023-03-14T08:13:31.172Z,412
2023-03-14T08:14:31.096Z,408
2023-03-14T08:15:31.322Z,408
2023-03-14T08:16:32.028Z,404
2023-03-14T08:17:34.739Z,400
2023-03-14T08:18:32.691Z,396
2023-03-14T08:19:32.866Z,392
2023-03-14T08:20:33.377Z,380
2023-03-14T08:21:33.323Z,380
2023-03-14T08:22:33.700Z,376
2023-03-14T08:23:34.625Z,360
2023-03-14T08:24:35.654Z,348
2023-03-14T08:25:35.911Z,336
2023-03-14T08:26:36.265Z,332
2023-03-14T08:27:37.197Z,336
2023-03-14T08:28:37.489Z,344
2023-03-14T08:29:37.590Z,352
2023-03-14T08:30:38.881Z,360
2023-03-14T08:31:39.645Z,368
2023-03-14T08:32:39.747Z,372
2023-03-14T08:33:40.619Z,376
2023-03-14T08:34:42.179Z,380
2023-03-14T08:35:41.846Z,380
2023-03-14T08:36:43.491Z,388
2023-03-14T08:37:43.777Z,384
2023-03-14T08:38:44.486Z,376
2023-03-14T08:39:44.733Z,372
2023-03-14T08:40:45.327Z,368
2023-03-14T08:41:45.656Z,360
2023-03-14T08:42:46.657Z,348
2023-03-14T08:43:47.594Z,340
2023-03-14T08:44:48.536Z,344
2023-03-14T08:45:48.472Z,344
2023-03-14T08:46:48.433Z,348
2023-03-14T08:47:49.451Z,364
2023-03-14T08:48:50.010Z,384
2023-03-14T08:49:50.418Z,404
2023-03-14T08:50:51.107Z,412
2023-03-14T08:51:51.325Z,408
2023-03-14T08:52:52.258Z,400
2023-03-14T08:53:52.911Z,388
2023-03-14T08:54:53.260Z,388
2023-03-14T08:55:53.422Z,388
2023-03-14T08:56:53.942Z,384
2023-03-14T08:57:53.911Z,372
2023-03-14T08:58:54.834Z,372
2023-03-14T08:59:55.305Z,372
2023-03-14T09:00:55.898Z,380
2023-03-14T09:01:56.179Z,372
2023-03-14T09:02:56.470Z,360
2023-03-14T09:03:57.032Z,360
2023-03-14T09:04:57.361Z,352
2023-03-14T09:05:57.731Z,344
2023-03-14T09:06:59.235Z,336
2023-03-14T09:08:00.178Z,344
2023-03-14T09:09:00.428Z,360
2023-03-14T09:10:00.754Z,372
2023-03-14T09:11:01.311Z,392
2023-03-14T09:12:01.286Z,400
2023-03-14T09:13:02.221Z,408
2023-03-14T09:14:03.491Z,428
2023-03-14T09:15:04.011Z,444
2023-03-14T09:16:04.641Z,464
2023-03-14T09:17:04.820Z,476
2023-03-14T09:18:05.370Z,484
2023-03-14T09:19:06.362Z,496
2023-03-14T09:20:06.808Z,480
2023-03-14T09:21:07.025Z,484
2023-03-14T09:22:08.243Z,492
2023-03-14T09:23:08.467Z,496
2023-03-14T09:24:08.406Z,508
2023-03-14T09:25:10.098Z,520
2023-03-14T09:26:10.249Z,532
2023-03-14T09:27:10.538Z,552
2023-03-14T09:28:11.059Z,568
2023-03-14T09:29:10.994Z,580
2023-03-14T09:30:12.035Z,600
2023-03-14T09:31:12.688Z,616
2023-03-14T09:32:13.255Z,628
2023-03-14T09:33:13.834Z,640
2023-03-14T09:34:13.770Z,648
2023-03-14T09:35:14.708Z,648
2023-03-14T09:36:14.387Z,652
2023-03-14T09:37:16.312Z,648
2023-03-14T09:38:16.800Z,652
2023-03-14T09:39:17.342Z,656
2023-03-14T09:40:19.132Z,664
2023-03-14T09:41:18.438Z,676
2023-03-14T09:42:18.720Z,696
2023-03-14T09:43:19.654Z,732
2023-03-14T09:44:20.331Z,792
2023-03-14T09:45:23.347Z,852
2023-03-14T09:46:21.164Z,916
2023-03-14T09:47:21.718Z,984
2023-03-14T09:48:21.939Z,1060
2023-03-14T09:49:22.464Z,1136
2023-03-14T09:50:22.913Z,1196
2023-03-14T09:51:23.895Z,1252
2023-03-14T09:52:24.290Z,1296
2023-03-14T09:53:25.786Z,1280
2023-03-14T09:54:26.293Z,1244
2023-03-14T09:55:26.315Z,1192
2023-03-14T09:56:27.425Z,1148
2023-03-14T09:57:27.718Z,1116
2023-03-14T09:58:28.435Z,1104
2023-03-14T09:59:29.127Z,1128
2023-03-14T10:00:29.618Z,1176
2023-03-14T10:01:32.334Z,1252
2023-03-14T10:02:30.990Z,1364
2023-03-14T10:03:32.212Z,1508
2023-03-14T10:04:32.655Z,1652
2023-03-14T10:05:33.447Z,1760
2023-03-14T10:06:33.956Z,1880
2023-03-14T10:07:34.205Z,1944
2023-03-14T10:08:34.764Z,2016
2023-03-14T10:09:35.768Z,2160
2023-03-14T10:10:36.876Z,2468
2023-03-14T10:11:37.588Z,3872
2023-03-14T10:12:38.205Z,4120
2023-03-14T10:13:38.357Z,7556
2023-03-14T10:14:38.629Z,12932
2023-03-14T10:15:38.575Z,7464
2023-03-14T10:16:40.003Z,6508
2023-03-14T10:17:40.039Z,6744
2023-03-14T10:18:41.066Z,7812
2023-03-14T10:19:41.720Z,13076
2023-03-14T10:20:42.302Z,11852
2023-03-14T10:21:42.991Z,13072
2023-03-14T10:22:42.966Z,12216
2023-03-14T10:23:45.147Z,11564
2023-03-14T10:24:44.934Z,11388
2023-03-14T10:25:45.587Z,10472
2023-03-14T10:26:46.197Z,10068
2023-03-14T10:27:46.721Z,6728
2023-03-14T10:28:46.960Z,4992
2023-03-14T10:29:47.661Z,5168
2023-03-14T10:30:49.245Z,4556
2023-03-14T10:31:49.634Z,4276
2023-03-14T10:32:50.450Z,5220
2023-03-14T10:33:50.484Z,5592
2023-03-14T10:34:51.043Z,5780
2023-03-14T10:35:50.834Z,6020
2023-03-14T10:36:51.425Z,7712
2023-03-14T10:37:51.656Z,6492
2023-03-14T10:38:51.900Z,5532
2023-03-14T10:39:52.873Z,4788
2023-03-14T10:40:54.064Z,4444
2023-03-14T10:41:54.250Z,4336
2023-03-14T10:42:55.404Z,4100
2023-03-14T10:43:55.393Z,4044
2023-03-14T10:44:55.628Z,4336
2023-03-14T10:45:56.498Z,4532
2023-03-14T10:46:57.647Z,4892
2023-03-14T10:47:58.902Z,5716
2023-03-14T10:48:59.409Z,8612
2023-03-14T10:49:59.495Z,7892
2023-03-14T10:51:00.114Z,5908
2023-03-14T10:52:00.365Z,6500
2023-03-14T10:53:13.560Z,8352
2023-03-14T10:54:02.634Z,8544
2023-03-14T10:55:02.867Z,7296
2023-03-14T10:56:03.515Z,8528
2023-03-14T10:57:03.825Z,6084
2023-03-14T10:58:03.866Z,5580
2023-03-14T10:59:04.800Z,4640
2023-03-14T11:00:06.103Z,4996
2023-03-14T11:01:06.846Z,4632
2023-03-14T11:02:07.457Z,3880
2023-03-14T11:03:08.122Z,3744
2023-03-14T11:04:08.076Z,3492
2023-03-14T11:05:09.624Z,3312
2023-03-14T11:06:09.621Z,3368
2023-03-14T11:07:11.053Z,3484
2023-03-14T11:08:14.098Z,3456
2023-03-14T11:09:11.392Z,3368
2023-03-14T11:10:11.603Z,3400
2023-03-14T11:11:12.964Z,3596
2023-03-14T11:12:13.324Z,3676
2023-03-14T11:13:13.837Z,3700
2023-03-14T11:14:14.114Z,3760
2023-03-14T11:15:14.363Z,3704
2023-03-14T11:16:14.733Z,3968
2023-03-14T11:17:15.771Z,3856
2023-03-14T11:18:16.009Z,3700
2023-03-14T11:19:16.350Z,3372
2023-03-14T11:20:15.853Z,3284
2023-03-14T11:21:16.943Z,3192
2023-03-14T11:22:17.478Z,3140
2023-03-14T11:23:17.453Z,3108
2023-03-14T11:24:18.384Z,3128
2023-03-14T11:25:18.460Z,3208
2023-03-14T11:26:19.778Z,3384
2023-03-14T11:27:21.156Z,3964
2023-03-14T11:28:21.117Z,4596
2023-03-14T11:29:22.395Z,4160
2023-03-14T11:30:22.441Z,4552
2023-03-14T11:31:23.359Z,4492
2023-03-14T11:32:23.442Z,3316
2023-03-14T11:33:23.974Z,3192
2023-03-14T11:34:24.937Z,3528
2023-03-14T11:35:25.897Z,3008
2023-03-14T11:36:26.996Z,2740
2023-03-14T11:37:27.248Z,2648
2023-03-14T11:38:27.467Z,2596
2023-03-14T11:39:27.990Z,2528
2023-03-14T11:40:28.551Z,2480
2023-03-14T11:41:28.985Z,2556
2023-03-14T11:42:30.453Z,2432
2023-03-14T11:43:31.042Z,2428
2023-03-14T11:44:31.513Z,2444
2023-03-14T11:45:31.861Z,2452
2023-03-14T11:46:32.298Z,2500
2023-03-14T11:47:32.302Z,2540
2023-03-14T11:48:32.248Z,2552
2023-03-14T11:49:33.198Z,2660
2023-03-14T11:50:34.410Z,2932
2023-03-14T11:51:35.255Z,2676
2023-03-14T11:52:35.557Z,2664
2023-03-14T11:53:36.077Z,2676
2023-03-14T11:54:37.385Z,2684
2023-03-14T11:55:37.921Z,2936
2023-03-14T11:56:38.245Z,2644
2023-03-14T11:57:39.375Z,2516
2023-03-14T11:58:38.910Z,2452
2023-03-14T11:59:38.798Z,2424
2023-03-14T12:00:40.539Z,2536
2023-03-14T12:01:40.430Z,2672
2023-03-14T12:02:40.775Z,2788
2023-03-14T12:03:41.032Z,3060
2023-03-14T12:04:42.641Z,2564
2023-03-14T12:05:42.760Z,2964
2023-03-14T12:06:43.907Z,2768
2023-03-14T12:07:44.438Z,2936
2023-03-14T12:08:44.691Z,3096
2023-03-14T12:09:46.229Z,3236
2023-03-14T12:10:46.165Z,3228
2023-03-14T12:11:47.557Z,3292
2023-03-14T12:12:48.060Z,3384
2023-03-14T12:13:48.768Z,5532
2023-03-14T12:14:49.015Z,4168
2023-03-14T12:15:49.675Z,7988
2023-03-14T12:16:53.359Z,5848
2023-03-14T12:17:50.854Z,10388
2023-03-14T12:18:50.782Z,8040
2023-03-14T12:19:51.615Z,5052
2023-03-14T12:20:52.270Z,5976
2023-03-14T12:21:53.068Z,4528
2023-03-14T12:22:53.616Z,3224
2023-03-14T12:23:54.203Z,3020
2023-03-14T12:24:54.174Z,2300
2023-03-14T12:25:54.678Z,2236
2023-03-14T12:26:55.431Z,2292
2023-03-14T12:27:55.811Z,2240
2023-03-14T12:28:55.801Z,2072
2023-03-14T12:29:57.052Z,1824
2023-03-14T12:30:57.238Z,1684
2023-03-14T12:31:58.519Z,1720
2023-03-14T12:32:59.050Z,1640
2023-03-14T12:33:59.337Z,1576
2023-03-14T12:34:59.587Z,1548
2023-03-14T12:35:59.739Z,1540
2023-03-14T12:37:00.427Z,1632
2023-03-14T12:38:00.738Z,1708
2023-03-14T12:39:00.984Z,1596
2023-03-14T12:40:01.310Z,1436
2023-03-14T12:41:01.394Z,1292
2023-03-14T12:42:02.903Z,1256
2023-03-14T12:43:03.784Z,1228
2023-03-14T12:44:04.413Z,1148
2023-03-14T12:45:04.724Z,1148
2023-03-14T12:46:05.520Z,1264
2023-03-14T12:47:05.597Z,1496
2023-03-14T12:48:06.816Z,1872
2023-03-14T12:49:06.767Z,2408
2023-03-14T12:50:07.287Z,3548
2023-03-14T12:51:07.214Z,4396
2023-03-14T12:52:08.674Z,3224
2023-03-14T12:53:08.387Z,2444
2023-03-14T12:54:08.725Z,1968
2023-03-14T12:55:09.973Z,1900
2023-03-14T12:56:10.149Z,1808
2023-03-14T12:57:10.734Z,1840
2023-03-14T12:58:10.727Z,1888
2023-03-14T12:59:10.994Z,2008
2023-03-14T13:00:12.264Z,2400
2023-03-14T13:01:12.248Z,2720
2023-03-14T13:02:12.459Z,4512
2023-03-14T13:03:13.384Z,4524
2023-03-14T13:04:14.745Z,2956
2023-03-14T13:05:17.694Z,2560
2023-03-14T13:06:15.974Z,2032
2023-03-14T13:07:16.753Z,2548
2023-03-14T13:08:17.278Z,2004
2023-03-14T13:09:17.339Z,1976
2023-03-14T13:10:18.032Z,1680
2023-03-14T13:11:18.278Z,1500
2023-03-14T13:12:19.682Z,1408
2023-03-14T13:13:20.254Z,1340
2023-03-14T13:14:20.793Z,1340
2023-03-14T13:15:22.742Z,1376
2023-03-14T13:16:21.097Z,1380
2023-03-14T13:17:44.904Z,1392
2023-03-14T13:18:21.717Z,1392
2023-03-14T13:19:22.370Z,1372
2023-03-14T13:20:22.618Z,1320
2023-03-14T13:21:23.166Z,1276
2023-03-14T13:22:23.547Z,1192
2023-03-14T13:23:25.166Z,1096
2023-03-14T13:24:25.414Z,1012
2023-03-14T13:25:25.445Z,956
2023-03-14T13:26:26.948Z,916
2023-03-14T13:27:27.258Z,876
2023-03-14T13:28:27.611Z,848
2023-03-14T13:29:27.950Z,828
2023-03-14T13:30:28.595Z,836
2023-03-14T13:31:29.283Z,824
2023-03-14T13:32:29.769Z,820
2023-03-14T13:33:29.668Z,788
2023-03-14T13:34:30.576Z,780
2023-03-14T13:35:30.933Z,804
2023-03-14T13:36:31.209Z,824
2023-03-14T13:37:31.650Z,864
2023-03-14T13:38:32.220Z,892
2023-03-14T13:39:32.259Z,916
2023-03-14T13:40:33.092Z,956
2023-03-14T13:41:33.116Z,992
2023-03-14T13:42:34.596Z,1072
2023-03-14T13:43:35.211Z,1356
2023-03-14T13:44:35.643Z,2340
2023-03-14T13:45:37.312Z,1476
2023-03-14T13:46:37.638Z,1956
2023-03-14T13:47:37.747Z,1728
2023-03-14T13:48:38.977Z,2144
2023-03-14T13:49:38.924Z,1680
2023-03-14T13:50:40.184Z,1404
2023-03-14T13:51:40.157Z,1212
2023-03-14T13:52:41.460Z,1072
2023-03-14T13:53:41.682Z,944
2023-03-14T13:54:41.887Z,860
2023-03-14T13:55:42.190Z,812
2023-03-14T13:56:46.091Z,804
2023-03-14T13:57:44.137Z,792
2023-03-14T13:58:45.210Z,764
2023-03-14T13:59:45.744Z,740
2023-03-14T14:00:45.698Z,724
2023-03-14T14:01:46.541Z,684
2023-03-14T14:02:47.074Z,648
2023-03-14T14:03:47.521Z,664
2023-03-14T14:04:48.652Z,648
2023-03-14T14:05:47.964Z,636
2023-03-14T14:06:50.620Z,620
2023-03-14T14:07:49.083Z,580
2023-03-14T14:08:50.018Z,548
2023-03-14T14:09:50.546Z,516
2023-03-14T14:10:50.799Z,508